• Join FlightAware (Why Join?)
  • Login
  • US Flag GB Flag 
18:20 EST


 

Airport Tracker/Info


-or-


 

Live Flight TrackerFlight Track Log ✈ DAL1562 ✈ 08-Apr-2013 ✈ KPHL - KDTW

Flight Track Log - Related Links

Times and Time Zones

All times are in EDT time to prevent confusion due to time zone crossing. See the DAL1562 flight status page for this flight to view local times or setup timezone preferences in your user account.

Time Position Orientation Groundspeed Altitude Reporting Facility
EDT Latitude Longitude Course Direction KTS MPH feet Rate Location/Type
16:43 39.8600 -75.2817 263° West 144 166 1,200  Level FAA TRACON SMA TRACON (SMA)
16:44 39.8581 -75.3022 263° West 180 207 1,600 1,560 Climbing FAA TRACON SMA TRACON (SMA)
16:44 39.8542 -75.3294 259° West 232 267 2,300 2,580 Climbing FAA TRACON SMA TRACON (SMA)
16:44 39.8492 -75.3619 259° West 253 291 3,300 3,480 Climbing FAA TRACON SMA TRACON (SMA)
16:45 39.8494 -75.3906 271° West 248 285 4,600 3,600 Climbing FAA TRACON SMA TRACON (SMA)
16:45 39.8558 -75.4186 287° West 255 293 5,700 3,300 Climbing FAA TRACON SMA TRACON (SMA)
16:45 39.8633 -75.4464 289° West 262 302 6,800 3,900 Climbing FAA TRACON SMA TRACON (SMA)
16:46 39.8722 -75.4806 289° West 258 297 8,300 3,600 Climbing FAA TRACON SMA TRACON (SMA)
16:46 39.8792 -75.5067 289° West 261 300 9,200 3,000 Climbing FAA TRACON SMA TRACON (SMA)
16:46 39.8869 -75.5367 289° West 262 302 10,300 2,520 Climbing FAA TRACON SMA TRACON (SMA)
16:47 39.8947 -75.5744 285° West 286 329 10,900 1,800 Climbing FAA TRACON SMA TRACON (SMA)
16:47 39.9022 -75.6061 287° West 300 345 11,500 1,620 Climbing FAA TRACON SMA TRACON (SMA)
16:47 39.9111 -75.6406 289° West 320 368 12,000 720 Climbing FAA TRACON SMA TRACON (SMA)
16:48 39.9183 -75.6875 281° West 352 405 12,000  Level FAA TRACON SMA TRACON (SMA)
16:48 39.9186 -75.7253 271° West 352 405 12,000 300 Level FAA TRACON SMA TRACON (SMA)
16:48 39.9183 -75.7664 270° West 353 406 12,200 1,500 Climbing FAA TRACON SMA TRACON (SMA)
16:49 39.9167 -75.8161 268° West 355 409 13,000 2,220 Climbing FAA TRACON SMA TRACON (SMA)
16:49 39.9153 -75.8556 267° West 356 410 13,700 1,920 Climbing FAA TRACON SMA TRACON (SMA)
16:49 39.9139 -75.8958 267° West 361 415 14,300 2,220 Climbing FAA TRACON SMA TRACON (SMA)
16:50 39.9128 -75.9458 268° West 366 421 15,200 2,220 Climbing FAA TRACON SMA TRACON (SMA)
16:50 39.9114 -75.9894 268° West 372 428 15,800 2,100 Climbing FAA TRACON SMA TRACON (SMA)
16:50 39.9108 -76.0319 269° West 379 436 16,600 2,520 Climbing FAA TRACON SMA TRACON (SMA)
16:51 39.9094 -76.0856 268° West 384 442 17,500 2,100 Climbing FAA TRACON SMA TRACON (SMA)
16:51 39.9083 -76.1292 268° West 388 447 18,000 1,680 Climbing FAA TRACON SMA TRACON (SMA)
16:54 39.9231 -76.4850 273° West 417 480 22,300 1,620 Climbing New York Center
16:55 39.9344 -76.6350 276° West 417 480 23,700 1,680 Climbing New York Center
16:56 39.9497 -76.7881 277° West 428 493 25,700 1,980 Climbing New York Center
16:57 39.9606 -76.9378 275° West 428 493 27,800 1,140 Climbing New York Center
16:58 39.9739 -77.0828 277° West 423 487 28,000 60 Climbing New York Center
16:59 39.9900 -77.2467 277° West 418 481 28,000  Level New York Center
17:01 40.0164 -77.5497 277° West 408 470 28,000  Level Cleveland Center
17:02 40.0283 -77.6956 276° West 402 463 28,000  Level Cleveland Center
17:03 40.0406 -77.8442 276° West 402 463 28,000  Level Cleveland Center
17:04 40.0519 -77.9739 277° West 402 463 28,000  Level Cleveland Center
17:05 40.0614 -78.1172 275° West 402 463 28,000  Level Cleveland Center
17:06 40.0811 -78.2603 280° West 402 463 28,000  Level Cleveland Center
17:07 40.1150 -78.3978 288° West 402 463 28,000  Level Cleveland Center
17:08 40.1508 -78.5350 289° West 402 463 28,000  Level Cleveland Center
17:09 40.1825 -78.6728 287° West 402 463 28,000  Level Cleveland Center
17:10 40.2158 -78.8078 288° West 397 457 28,000  Level Cleveland Center
17:11 40.2492 -78.9456 288° West 397 457 28,000  Level Cleveland Center
17:12 40.2825 -79.0836 288° West 397 457 28,000  Level Cleveland Center
17:13 40.3175 -79.2217 288° West 397 457 28,000  Level Cleveland Center
17:14 40.3547 -79.3706 288° West 397 457 28,000  Level Cleveland Center
17:15 40.3872 -79.5092 287° West 397 457 28,000  Level Cleveland Center
17:16 40.4219 -79.6503 288° West 397 457 28,000  Level Cleveland Center
17:17 40.4542 -79.7864 287° West 397 457 28,000  Level Cleveland Center
17:18 40.4842 -79.9225 286° West 397 457 28,000  Level Cleveland Center
17:19 40.5142 -80.0450 288° West 397 457 28,000  Level Cleveland Center
17:20 40.5439 -80.1814 286° West 397 457 28,000  Level Cleveland Center
17:21 40.5775 -80.3344 286° West 397 457 28,000  Level Cleveland Center
17:22 40.6111 -80.4736 288° West 397 457 28,000  Level Cleveland Center
17:23 40.6425 -80.6106 287° West 397 457 28,000  Level Cleveland Center
17:24 40.6736 -80.7308 289° West 397 457 28,000  Level Cleveland Center
17:25 40.7319 -80.8544 302° West 391 450 28,000  Level Cleveland Center
17:26 40.7919 -80.9753 303° West 391 450 28,000  Level Cleveland Center
17:27 40.8478 -81.1019 300° West 399 459 28,000  Level Cleveland Center
17:28 40.9056 -81.2206 303° West 399 459 28,000  Level Cleveland Center
17:29 40.9653 -81.3392 304° West 393 452 28,000  Level Cleveland Center
17:30 41.0289 -81.4750 302° West 388 447 28,000  Level Cleveland Center
17:31 41.0842 -81.5886 303° West 388 447 28,000  Level Cleveland Center
17:32 41.1353 -81.6886 304° West 377 434 28,000 -600 Level Cleveland Center
17:33 41.1883 -81.8000 302° West 365 420 26,800 -1,320 Descending Cleveland Center
17:34 41.2414 -81.9114 302° West 365 420 25,400 -1,320 Descending Cleveland Center
17:35 41.2922 -82.0203 302° West 365 420 24,200 -720 Descending Cleveland Center
17:36 41.3428 -82.1347 301° West 365 420 24,000 -1,320 Descending Cleveland Center
17:37 41.4039 -82.2414 307° West 365 420 21,600 -2,100 Descending Cleveland Center
17:38 41.4689 -82.3483 309° West 372 428 19,800 -1,740 Descending Cleveland Center
17:38 41.5136 -82.4244 308° West 371 427 18,700 -1,680 Descending Cleveland Center
17:39 41.5297 -82.4525 307° West 367 422 18,100 -2,460 Descending Cleveland Center
17:39 41.5828 -82.5347 311° West 352 405 16,200 -2,340 Descending Cleveland Center
17:40 41.5967 -82.5628 304° West 362 417 15,800 -2,220 Descending Cleveland Center
17:40 41.6333 -82.6222 310° West 336 387 14,200 -2,700 Descending Cleveland Center
17:41 41.6533 -82.6592 306° West 345 397 13,100 -1,980 Descending Cleveland Center
17:41 41.6958 -82.7300 309° West 325 374 12,000 -1,140 Descending Cleveland Center
17:42 41.7081 -82.7528 306° West 334 384 12,000  Level Cleveland Center
17:42 41.7467 -82.8069 314° West 326 375 12,000  Level Cleveland Center
17:43 41.7731 -82.8383 318° Northwest 329 379 12,000  Level Cleveland Center
17:43 41.8281 -82.9017 319° Northwest 328 377 12,000  Level Cleveland Center
17:44 41.8831 -82.9706 317° Northwest 331 381 12,000  Level Cleveland Center
17:45 41.9094 -83.0022 318° Northwest 323 372 12,000  Level Cleveland Center
17:45 41.9519 -83.0542 318° Northwest 324 373 12,000  Level Cleveland Center
17:46 41.9764 -83.0831 319° Northwest 323 372 12,000  Level Cleveland Center
17:46 42.0192 -83.1322 320° Northwest 323 372 12,000  Level Cleveland Center
17:47 42.0436 -83.1639 316° Northwest 323 372 12,000  Level Cleveland Center
17:47 42.0903 -83.2161 320° Northwest 270 311 12,000  Level Cleveland Center
17:48 42.0986 -83.2167 357° North 312 359 12,000 -900 Level Cleveland Center
17:48 42.1631 -83.2247 355° North 245 282 11,100 -1,140 Descending Cleveland Center
17:49 42.2242 -83.1908 22° Northeast 257 296 10,000 -1,320 Descending Cleveland Center
17:50 42.2858 -83.1344 34° Northeast 255 293 8,500 -1,320 Descending Cleveland Center
17:51 42.3453 -83.0864 31° Northeast 253 291 7,400 -1,260 Descending Cleveland Center
17:52 42.4064 -83.0606 17° North 204 235 6,000 -720 Descending Cleveland Center
17:53 42.4450 -83.1072 318° Northwest 191 220 6,000 -540 Level Cleveland Center
17:54 42.4439 -83.1522 268° West 150 173 5,000 -540 Descending Cleveland Center
17:56 42.4119 -83.1903 221° Southwest 154 177 5,000 -480 Level Cleveland Center
17:57 42.3758 -83.2197 211° Southwest 153 176 4,100 -900 Descending Cleveland Center